sensor_id;sensor_type;location;lat;lon;timestamp;temperature;humidity
25991;DHT22;13779;-33.886;151.198;2023-06-22T00:00:04;11.70;99.90
25991;DHT22;13779;-33.886;151.198;2023-06-22T00:02:41;11.70;99.90
25991;DHT22;13779;-33.886;151.198;2023-06-22T00:05:12;11.70;99.90
25991;DHT22;13779;-33.886;151.198;2023-06-22T00:07:42;11.80;99.90
25991;DHT22;13779;-33.886;151.198;2023-06-22T00:10:13;11.90;99.90
25991;DHT22;13779;-33.886;151.198;2023-06-22T00:12:44;11.90;99.90
25991;DHT22;13779;-33.886;151.198;2023-06-22T00:15:14;11.90;99.90
25991;DHT22;13779;-33.886;151.198;2023-06-22T00:17:46;11.90;99.90
25991;DHT22;13779;-33.886;151.198;2023-06-22T00:20:16;11.90;99.90
25991;DHT22;13779;-33.886;151.198;2023-06-22T00:22:47;12.00;99.90
25991;DHT22;13779;-33.886;151.198;2023-06-22T00:25:18;12.00;99.90
25991;DHT22;13779;-33.886;151.198;2023-06-22T00:27:49;12.20;99.90
25991;DHT22;13779;-33.886;151.198;2023-06-22T00:30:20;12.40;99.90
25991;DHT22;13779;-33.886;151.198;2023-06-22T00:32:50;12.50;99.90
25991;DHT22;13779;-33.886;151.198;2023-06-22T00:35:21;12.60;99.90
25991;DHT22;13779;-33.886;151.198;2023-06-22T00:37:52;12.60;99.90
25991;DHT22;13779;-33.886;151.198;2023-06-22T00:40:31;12.70;99.90
25991;DHT22;13779;-33.886;151.198;2023-06-22T00:43:02;12.80;99.90
25991;DHT22;13779;-33.886;151.198;2023-06-22T00:45:34;12.90;99.90
25991;DHT22;13779;-33.886;151.198;2023-06-22T00:48:05;13.00;99.90
25991;DHT22;13779;-33.886;151.198;2023-06-22T00:50:36;13.10;99.90
25991;DHT22;13779;-33.886;151.198;2023-06-22T00:53:08;13.20;99.90
25991;DHT22;13779;-33.886;151.198;2023-06-22T00:55:42;13.20;99.90
25991;DHT22;13779;-33.886;151.198;2023-06-22T00:58:22;13.20;99.90
25991;DHT22;13779;-33.886;151.198;2023-06-22T01:00:54;13.30;99.90
25991;DHT22;13779;-33.886;151.198;2023-06-22T01:03:24;13.40;99.90
25991;DHT22;13779;-33.886;151.198;2023-06-22T01:06:02;13.40;99.90
25991;DHT22;13779;-33.886;151.198;2023-06-22T01:08:54;13.50;99.90
25991;DHT22;13779;-33.886;151.198;2023-06-22T01:11:37;13.50;99.90
25991;DHT22;13779;-33.886;151.198;2023-06-22T01:14:19;13.50;99.90
25991;DHT22;13779;-33.886;151.198;2023-06-22T01:16:52;13.50;99.90
25991;DHT22;13779;-33.886;151.198;2023-06-22T01:19:37;13.60;99.90
25991;DHT22;13779;-33.886;151.198;2023-06-22T01:22:15;13.80;99.90
25991;DHT22;13779;-33.886;151.198;2023-06-22T01:25:15;13.80;99.90
25991;DHT22;13779;-33.886;151.198;2023-06-22T01:30:22;14.00;99.90
25991;DHT22;13779;-33.886;151.198;2023-06-22T01:32:57;14.00;99.90
25991;DHT22;13779;-33.886;151.198;2023-06-22T01:35:29;14.10;99.90
25991;DHT22;13779;-33.886;151.198;2023-06-22T01:37:59;14.10;99.90
25991;DHT22;13779;-33.886;151.198;2023-06-22T01:40:30;14.10;99.90
25991;DHT22;13779;-33.886;151.198;2023-06-22T01:43:03;14.20;99.90
25991;DHT22;13779;-33.886;151.198;2023-06-22T01:45:33;14.20;99.90
25991;DHT22;13779;-33.886;151.198;2023-06-22T01:48:04;14.20;99.90
25991;DHT22;13779;-33.886;151.198;2023-06-22T01:50:36;14.10;99.90
25991;DHT22;13779;-33.886;151.198;2023-06-22T01:53:10;14.20;99.90
25991;DHT22;13779;-33.886;151.198;2023-06-22T01:55:41;14.20;99.90
25991;DHT22;13779;-33.886;151.198;2023-06-22T01:58:12;14.20;99.90
25991;DHT22;13779;-33.886;151.198;2023-06-22T02:00:44;14.20;99.90
25991;DHT22;13779;-33.886;151.198;2023-06-22T02:03:26;14.20;99.90
25991;DHT22;13779;-33.886;151.198;2023-06-22T02:06:08;14.20;99.90
25991;DHT22;13779;-33.886;151.198;2023-06-22T02:08:49;14.20;99.90
25991;DHT22;13779;-33.886;151.198;2023-06-22T02:11:22;14.20;99.90
25991;DHT22;13779;-33.886;151.198;2023-06-22T02:13:55;14.20;99.90
25991;DHT22;13779;-33.886;151.198;2023-06-22T02:16:26;14.20;99.90
25991;DHT22;13779;-33.886;151.198;2023-06-22T02:19:02;14.30;99.90
25991;DHT22;13779;-33.886;151.198;2023-06-22T02:21:33;14.40;99.90
25991;DHT22;13779;-33.886;151.198;2023-06-22T02:24:04;14.40;99.90
25991;DHT22;13779;-33.886;151.198;2023-06-22T02:26:35;14.50;99.90
25991;DHT22;13779;-33.886;151.198;2023-06-22T02:29:08;14.50;99.90
25991;DHT22;13779;-33.886;151.198;2023-06-22T02:31:38;14.60;99.90
25991;DHT22;13779;-33.886;151.198;2023-06-22T02:34:09;14.60;99.90
25991;DHT22;13779;-33.886;151.198;2023-06-22T02:36:39;14.50;99.90
25991;DHT22;13779;-33.886;151.198;2023-06-22T02:39:10;14.50;99.90
25991;DHT22;13779;-33.886;151.198;2023-06-22T02:41:41;14.50;99.90
25991;DHT22;13779;-33.886;151.198;2023-06-22T02:44:11;14.50;99.90
25991;DHT22;13779;-33.886;151.198;2023-06-22T02:46:43;14.50;99.90
25991;DHT22;13779;-33.886;151.198;2023-06-22T02:49:13;14.40;99.90
25991;DHT22;13779;-33.886;151.198;2023-06-22T02:51:48;14.50;99.90
25991;DHT22;13779;-33.886;151.198;2023-06-22T02:54:19;14.50;99.90
25991;DHT22;13779;-33.886;151.198;2023-06-22T02:56:50;14.60;99.90
25991;DHT22;13779;-33.886;151.198;2023-06-22T02:59:20;14.60;99.90
25991;DHT22;13779;-33.886;151.198;2023-06-22T03:01:54;14.60;99.90
25991;DHT22;13779;-33.886;151.198;2023-06-22T03:04:24;14.60;99.90
25991;DHT22;13779;-33.886;151.198;2023-06-22T03:06:55;14.60;99.90
25991;DHT22;13779;-33.886;151.198;2023-06-22T03:09:26;14.60;99.90
25991;DHT22;13779;-33.886;151.198;2023-06-22T03:11:57;14.60;99.90
25991;DHT22;13779;-33.886;151.198;2023-06-22T03:14:28;14.60;99.90
25991;DHT22;13779;-33.886;151.198;2023-06-22T03:16:59;14.60;99.90
25991;DHT22;13779;-33.886;151.198;2023-06-22T03:19:32;14.60;99.90
25991;DHT22;13779;-33.886;151.198;2023-06-22T03:22:03;14.60;99.90
25991;DHT22;13779;-33.886;151.198;2023-06-22T03:24:34;14.60;99.90
25991;DHT22;13779;-33.886;151.198;2023-06-22T03:27:07;14.60;99.90
25991;DHT22;13779;-33.886;151.198;2023-06-22T03:29:37;14.60;99.90
25991;DHT22;13779;-33.886;151.198;2023-06-22T03:32:08;14.50;99.90
25991;DHT22;13779;-33.886;151.198;2023-06-22T03:34:39;14.50;99.90
25991;DHT22;13779;-33.886;151.198;2023-06-22T03:37:09;14.50;99.90
25991;DHT22;13779;-33.886;151.198;2023-06-22T03:39:41;14.50;99.90
25991;DHT22;13779;-33.886;151.198;2023-06-22T03:42:11;14.40;99.90
25991;DHT22;13779;-33.886;151.198;2023-06-22T03:44:41;14.40;99.90
25991;DHT22;13779;-33.886;151.198;2023-06-22T03:47:12;14.40;99.90
25991;DHT22;13779;-33.886;151.198;2023-06-22T03:49:43;14.30;99.90
25991;DHT22;13779;-33.886;151.198;2023-06-22T03:52:14;14.30;99.90
25991;DHT22;13779;-33.886;151.198;2023-06-22T03:54:44;14.30;99.90
25991;DHT22;13779;-33.886;151.198;2023-06-22T03:57:15;14.30;99.90
25991;DHT22;13779;-33.886;151.198;2023-06-22T03:59:46;14.30;99.90
25991;DHT22;13779;-33.886;151.198;2023-06-22T04:02:16;14.30;99.90
25991;DHT22;13779;-33.886;151.198;2023-06-22T04:04:47;14.30;99.90
25991;DHT22;13779;-33.886;151.198;2023-06-22T04:07:17;14.30;99.90
25991;DHT22;13779;-33.886;151.198;2023-06-22T04:09:48;14.30;99.90
25991;DHT22;13779;-33.886;151.198;2023-06-22T04:12:19;14.30;99.90
25991;DHT22;13779;-33.886;151.198;2023-06-22T04:14:49;14.30;99.90
25991;DHT22;13779;-33.886;151.198;2023-06-22T04:17:20;14.40;99.90
25991;DHT22;13779;-33.886;151.198;2023-06-22T04:19:51;14.50;99.90
25991;DHT22;13779;-33.886;151.198;2023-06-22T04:22:22;14.50;99.90
25991;DHT22;13779;-33.886;151.198;2023-06-22T04:24:53;14.50;99.90
25991;DHT22;13779;-33.886;151.198;2023-06-22T04:27:24;14.50;99.90
25991;DHT22;13779;-33.886;151.198;2023-06-22T04:29:54;14.50;99.90
25991;DHT22;13779;-33.886;151.198;2023-06-22T04:32:25;14.50;99.90
25991;DHT22;13779;-33.886;151.198;2023-06-22T04:34:56;14.50;99.90
25991;DHT22;13779;-33.886;151.198;2023-06-22T04:37:26;14.50;99.90
25991;DHT22;13779;-33.886;151.198;2023-06-22T04:39:57;14.50;99.90
25991;DHT22;13779;-33.886;151.198;2023-06-22T04:42:28;14.50;99.90
25991;DHT22;13779;-33.886;151.198;2023-06-22T04:44:58;14.50;99.90
25991;DHT22;13779;-33.886;151.198;2023-06-22T04:47:29;14.50;99.90
25991;DHT22;13779;-33.886;151.198;2023-06-22T04:50:00;14.50;99.90
25991;DHT22;13779;-33.886;151.198;2023-06-22T04:52:35;14.50;99.90
25991;DHT22;13779;-33.886;151.198;2023-06-22T04:55:06;14.50;99.90
25991;DHT22;13779;-33.886;151.198;2023-06-22T04:57:39;14.50;99.90
25991;DHT22;13779;-33.886;151.198;2023-06-22T05:00:10;14.50;99.90
25991;DHT22;13779;-33.886;151.198;2023-06-22T05:02:46;14.50;99.90
25991;DHT22;13779;-33.886;151.198;2023-06-22T05:05:17;14.50;99.90
25991;DHT22;13779;-33.886;151.198;2023-06-22T05:07:49;14.50;99.90
25991;DHT22;13779;-33.886;151.198;2023-06-22T05:10:22;14.50;99.90
25991;DHT22;13779;-33.886;151.198;2023-06-22T05:12:52;14.40;99.90
25991;DHT22;13779;-33.886;151.198;2023-06-22T05:15:22;14.40;99.90
25991;DHT22;13779;-33.886;151.198;2023-06-22T05:17:57;14.50;99.90
25991;DHT22;13779;-33.886;151.198;2023-06-22T05:20:28;14.50;99.90
25991;DHT22;13779;-33.886;151.198;2023-06-22T05:22:58;14.50;99.90
25991;DHT22;13779;-33.886;151.198;2023-06-22T05:25:28;14.40;99.90
25991;DHT22;13779;-33.886;151.198;2023-06-22T05:27:59;14.40;99.90
25991;DHT22;13779;-33.886;151.198;2023-06-22T05:30:29;14.40;99.90
25991;DHT22;13779;-33.886;151.198;2023-06-22T05:33:00;14.40;99.90
25991;DHT22;13779;-33.886;151.198;2023-06-22T05:35:30;14.40;99.90
25991;DHT22;13779;-33.886;151.198;2023-06-22T05:38:00;14.40;99.90
25991;DHT22;13779;-33.886;151.198;2023-06-22T05:40:30;14.30;99.90
25991;DHT22;13779;-33.886;151.198;2023-06-22T05:43:00;14.30;99.90
25991;DHT22;13779;-33.886;151.198;2023-06-22T05:45:31;14.30;99.90
25991;DHT22;13779;-33.886;151.198;2023-06-22T05:48:01;14.30;99.90
25991;DHT22;13779;-33.886;151.198;2023-06-22T05:50:31;14.20;99.90
25991;DHT22;13779;-33.886;151.198;2023-06-22T05:53:01;14.20;99.90
25991;DHT22;13779;-33.886;151.198;2023-06-22T05:55:32;14.20;99.90
25991;DHT22;13779;-33.886;151.198;2023-06-22T05:58:02;14.20;99.90
25991;DHT22;13779;-33.886;151.198;2023-06-22T06:00:36;14.10;99.90
25991;DHT22;13779;-33.886;151.198;2023-06-22T06:03:07;14.00;99.90
25991;DHT22;13779;-33.886;151.198;2023-06-22T06:05:39;14.00;99.90
25991;DHT22;13779;-33.886;151.198;2023-06-22T06:08:09;14.00;99.90
25991;DHT22;13779;-33.886;151.198;2023-06-22T06:10:40;13.90;99.90
25991;DHT22;13779;-33.886;151.198;2023-06-22T06:13:10;13.90;99.90
25991;DHT22;13779;-33.886;151.198;2023-06-22T06:15:40;13.80;99.90
25991;DHT22;13779;-33.886;151.198;2023-06-22T06:18:11;13.70;99.90
25991;DHT22;13779;-33.886;151.198;2023-06-22T06:20:41;13.70;99.90
25991;DHT22;13779;-33.886;151.198;2023-06-22T06:23:11;13.70;99.90
25991;DHT22;13779;-33.886;151.198;2023-06-22T06:25:41;13.70;99.90
25991;DHT22;13779;-33.886;151.198;2023-06-22T06:28:12;13.60;99.90
25991;DHT22;13779;-33.886;151.198;2023-06-22T06:30:42;13.50;99.90
25991;DHT22;13779;-33.886;151.198;2023-06-22T06:33:13;13.50;99.90
25991;DHT22;13779;-33.886;151.198;2023-06-22T06:35:43;13.40;99.90
25991;DHT22;13779;-33.886;151.198;2023-06-22T06:38:13;13.40;99.90
25991;DHT22;13779;-33.886;151.198;2023-06-22T06:40:43;13.40;99.90
25991;DHT22;13779;-33.886;151.198;2023-06-22T06:43:14;13.30;99.90
25991;DHT22;13779;-33.886;151.198;2023-06-22T06:45:44;13.30;99.90
25991;DHT22;13779;-33.886;151.198;2023-06-22T06:48:17;13.30;99.90
25991;DHT22;13779;-33.886;151.198;2023-06-22T06:50:47;13.30;99.90
25991;DHT22;13779;-33.886;151.198;2023-06-22T06:53:19;13.30;99.90
25991;DHT22;13779;-33.886;151.198;2023-06-22T06:55:49;13.30;99.90
25991;DHT22;13779;-33.886;151.198;2023-06-22T06:58:19;13.20;99.90
25991;DHT22;13779;-33.886;151.198;2023-06-22T07:00:49;13.20;99.90
25991;DHT22;13779;-33.886;151.198;2023-06-22T07:03:20;13.20;99.90
25991;DHT22;13779;-33.886;151.198;2023-06-22T07:05:50;13.10;99.90
25991;DHT22;13779;-33.886;151.198;2023-06-22T07:08:20;13.00;99.90
25991;DHT22;13779;-33.886;151.198;2023-06-22T07:10:51;13.10;99.90
25991;DHT22;13779;-33.886;151.198;2023-06-22T07:13:21;13.00;99.90
25991;DHT22;13779;-33.886;151.198;2023-06-22T07:15:52;13.00;99.90
25991;DHT22;13779;-33.886;151.198;2023-06-22T07:18:23;12.90;99.90
25991;DHT22;13779;-33.886;151.198;2023-06-22T07:20:53;12.80;99.90
25991;DHT22;13779;-33.886;151.198;2023-06-22T07:23:23;12.80;99.90
25991;DHT22;13779;-33.886;151.198;2023-06-22T07:25:53;12.70;99.90
25991;DHT22;13779;-33.886;151.198;2023-06-22T07:28:23;12.70;99.90
25991;DHT22;13779;-33.886;151.198;2023-06-22T07:30:54;12.70;99.90
25991;DHT22;13779;-33.886;151.198;2023-06-22T07:33:24;12.80;99.90
25991;DHT22;13779;-33.886;151.198;2023-06-22T07:35:54;12.70;99.90
25991;DHT22;13779;-33.886;151.198;2023-06-22T07:38:24;12.70;99.90
25991;DHT22;13779;-33.886;151.198;2023-06-22T07:40:54;12.70;99.90
25991;DHT22;13779;-33.886;151.198;2023-06-22T07:43:24;12.70;99.90
25991;DHT22;13779;-33.886;151.198;2023-06-22T07:45:55;12.70;99.90
25991;DHT22;13779;-33.886;151.198;2023-06-22T07:48:27;12.60;99.90
25991;DHT22;13779;-33.886;151.198;2023-06-22T07:50:59;12.60;99.90
25991;DHT22;13779;-33.886;151.198;2023-06-22T07:53:29;12.60;99.90
25991;DHT22;13779;-33.886;151.198;2023-06-22T07:56:00;12.60;99.90
25991;DHT22;13779;-33.886;151.198;2023-06-22T07:58:31;12.60;99.90
25991;DHT22;13779;-33.886;151.198;2023-06-22T08:01:02;12.60;99.90
25991;DHT22;13779;-33.886;151.198;2023-06-22T08:03:34;12.70;99.90
25991;DHT22;13779;-33.886;151.198;2023-06-22T08:06:05;12.60;99.90
25991;DHT22;13779;-33.886;151.198;2023-06-22T08:08:36;12.70;99.90
25991;DHT22;13779;-33.886;151.198;2023-06-22T08:11:06;12.70;99.90
25991;DHT22;13779;-33.886;151.198;2023-06-22T08:13:37;12.60;99.90
25991;DHT22;13779;-33.886;151.198;2023-06-22T08:16:08;12.60;99.90
25991;DHT22;13779;-33.886;151.198;2023-06-22T08:18:39;12.60;99.90
25991;DHT22;13779;-33.886;151.198;2023-06-22T08:21:09;12.60;99.90
25991;DHT22;13779;-33.886;151.198;2023-06-22T08:23:41;12.60;99.90
25991;DHT22;13779;-33.886;151.198;2023-06-22T08:26:11;12.60;99.90
25991;DHT22;13779;-33.886;151.198;2023-06-22T08:28:42;12.60;99.90
25991;DHT22;13779;-33.886;151.198;2023-06-22T08:31:13;12.60;99.90
25991;DHT22;13779;-33.886;151.198;2023-06-22T08:33:44;12.60;99.90
25991;DHT22;13779;-33.886;151.198;2023-06-22T08:36:17;12.60;99.90
25991;DHT22;13779;-33.886;151.198;2023-06-22T08:38:48;12.60;99.90
25991;DHT22;13779;-33.886;151.198;2023-06-22T08:41:21;12.60;99.90
25991;DHT22;13779;-33.886;151.198;2023-06-22T08:43:52;12.60;99.90
25991;DHT22;13779;-33.886;151.198;2023-06-22T08:46:25;12.60;99.90
25991;DHT22;13779;-33.886;151.198;2023-06-22T08:49:00;12.50;99.90
25991;DHT22;13779;-33.886;151.198;2023-06-22T08:51:31;12.50;99.90
25991;DHT22;13779;-33.886;151.198;2023-06-22T08:54:01;12.50;99.90
25991;DHT22;13779;-33.886;151.198;2023-06-22T08:56:32;12.50;99.90
25991;DHT22;13779;-33.886;151.198;2023-06-22T08:59:03;12.50;99.90
25991;DHT22;13779;-33.886;151.198;2023-06-22T09:01:33;12.50;99.90
25991;DHT22;13779;-33.886;151.198;2023-06-22T09:04:04;12.50;99.90
25991;DHT22;13779;-33.886;151.198;2023-06-22T09:06:37;12.40;99.90
25991;DHT22;13779;-33.886;151.198;2023-06-22T09:09:15;12.40;99.90
25991;DHT22;13779;-33.886;151.198;2023-06-22T09:11:46;12.40;99.90
25991;DHT22;13779;-33.886;151.198;2023-06-22T09:14:20;12.40;99.90
25991;DHT22;13779;-33.886;151.198;2023-06-22T09:16:53;12.40;99.90
25991;DHT22;13779;-33.886;151.198;2023-06-22T09:19:24;12.40;99.90
25991;DHT22;13779;-33.886;151.198;2023-06-22T09:21:55;12.40;99.90
25991;DHT22;13779;-33.886;151.198;2023-06-22T09:24:26;12.40;99.90
25991;DHT22;13779;-33.886;151.198;2023-06-22T09:26:57;12.40;99.90
25991;DHT22;13779;-33.886;151.198;2023-06-22T09:29:28;12.40;99.90
25991;DHT22;13779;-33.886;151.198;2023-06-22T09:32:02;12.40;99.90
25991;DHT22;13779;-33.886;151.198;2023-06-22T09:34:33;12.40;99.90
25991;DHT22;13779;-33.886;151.198;2023-06-22T09:37:04;12.40;99.90
25991;DHT22;13779;-33.886;151.198;2023-06-22T09:39:35;12.40;99.90
25991;DHT22;13779;-33.886;151.198;2023-06-22T09:42:07;12.40;99.90
25991;DHT22;13779;-33.886;151.198;2023-06-22T09:44:37;12.30;99.90
25991;DHT22;13779;-33.886;151.198;2023-06-22T09:47:08;12.30;99.90
25991;DHT22;13779;-33.886;151.198;2023-06-22T09:49:39;12.30;99.90
25991;DHT22;13779;-33.886;151.198;2023-06-22T09:52:16;12.30;99.90
25991;DHT22;13779;-33.886;151.198;2023-06-22T09:54:48;12.20;99.90
25991;DHT22;13779;-33.886;151.198;2023-06-22T09:57:19;12.20;99.90
25991;DHT22;13779;-33.886;151.198;2023-06-22T09:59:53;12.20;99.90
25991;DHT22;13779;-33.886;151.198;2023-06-22T10:02:24;12.20;99.90
25991;DHT22;13779;-33.886;151.198;2023-06-22T10:04:54;12.20;99.90
25991;DHT22;13779;-33.886;151.198;2023-06-22T10:07:25;12.30;99.90
25991;DHT22;13779;-33.886;151.198;2023-06-22T10:09:56;12.30;99.90
25991;DHT22;13779;-33.886;151.198;2023-06-22T10:12:28;12.30;99.90
25991;DHT22;13779;-33.886;151.198;2023-06-22T10:14:59;12.30;99.90
25991;DHT22;13779;-33.886;151.198;2023-06-22T10:17:30;12.30;99.90
25991;DHT22;13779;-33.886;151.198;2023-06-22T10:20:01;12.30;99.90
25991;DHT22;13779;-33.886;151.198;2023-06-22T10:22:37;12.30;99.90
25991;DHT22;13779;-33.886;151.198;2023-06-22T10:25:09;12.30;99.90
25991;DHT22;13779;-33.886;151.198;2023-06-22T10:27:40;12.30;99.90
25991;DHT22;13779;-33.886;151.198;2023-06-22T10:30:12;12.30;99.90
25991;DHT22;13779;-33.886;151.198;2023-06-22T10:32:44;12.30;99.90
25991;DHT22;13779;-33.886;151.198;2023-06-22T10:35:14;12.30;99.90
25991;DHT22;13779;-33.886;151.198;2023-06-22T10:37:47;12.20;99.90
25991;DHT22;13779;-33.886;151.198;2023-06-22T10:40:18;12.20;99.90
25991;DHT22;13779;-33.886;151.198;2023-06-22T10:42:48;12.20;99.90
25991;DHT22;13779;-33.886;151.198;2023-06-22T10:45:20;12.20;99.90
25991;DHT22;13779;-33.886;151.198;2023-06-22T10:47:53;12.20;99.90
25991;DHT22;13779;-33.886;151.198;2023-06-22T10:50:24;12.20;99.90
25991;DHT22;13779;-33.886;151.198;2023-06-22T10:52:55;12.20;99.90
25991;DHT22;13779;-33.886;151.198;2023-06-22T10:55:27;12.20;99.90
25991;DHT22;13779;-33.886;151.198;2023-06-22T10:58:19;12.20;99.90
25991;DHT22;13779;-33.886;151.198;2023-06-22T11:00:49;12.20;99.90
25991;DHT22;13779;-33.886;151.198;2023-06-22T11:03:19;12.20;99.90
25991;DHT22;13779;-33.886;151.198;2023-06-22T11:05:50;12.20;99.90
25991;DHT22;13779;-33.886;151.198;2023-06-22T11:08:20;12.20;99.90
25991;DHT22;13779;-33.886;151.198;2023-06-22T11:10:51;12.20;99.90
25991;DHT22;13779;-33.886;151.198;2023-06-22T11:13:25;12.20;99.90
25991;DHT22;13779;-33.886;151.198;2023-06-22T11:15:55;12.20;99.90
25991;DHT22;13779;-33.886;151.198;2023-06-22T11:18:25;12.20;99.90
25991;DHT22;13779;-33.886;151.198;2023-06-22T11:20:56;12.20;99.90
25991;DHT22;13779;-33.886;151.198;2023-06-22T11:23:26;12.20;99.90
25991;DHT22;13779;-33.886;151.198;2023-06-22T11:25:57;12.20;99.90
25991;DHT22;13779;-33.886;151.198;2023-06-22T11:28:28;12.20;99.90
25991;DHT22;13779;-33.886;151.198;2023-06-22T11:31:02;12.10;99.90
25991;DHT22;13779;-33.886;151.198;2023-06-22T11:33:47;12.10;99.90
25991;DHT22;13779;-33.886;151.198;2023-06-22T11:36:18;12.10;99.90
25991;DHT22;13779;-33.886;151.198;2023-06-22T11:38:51;12.10;99.90
25991;DHT22;13779;-33.886;151.198;2023-06-22T11:41:22;12.00;99.90
25991;DHT22;13779;-33.886;151.198;2023-06-22T11:43:52;12.10;99.90
25991;DHT22;13779;-33.886;151.198;2023-06-22T11:46:22;12.10;99.90
25991;DHT22;13779;-33.886;151.198;2023-06-22T11:48:52;12.00;99.90
25991;DHT22;13779;-33.886;151.198;2023-06-22T11:51:27;12.00;99.90
25991;DHT22;13779;-33.886;151.198;2023-06-22T11:54:02;12.00;99.90
25991;DHT22;13779;-33.886;151.198;2023-06-22T11:56:33;12.00;99.90
25991;DHT22;13779;-33.886;151.198;2023-06-22T11:59:04;12.00;99.90
25991;DHT22;13779;-33.886;151.198;2023-06-22T12:01:35;11.90;99.90
25991;DHT22;13779;-33.886;151.198;2023-06-22T12:04:06;11.90;99.90
25991;DHT22;13779;-33.886;151.198;2023-06-22T12:06:38;12.00;99.90
25991;DHT22;13779;-33.886;151.198;2023-06-22T12:09:15;11.90;99.90
25991;DHT22;13779;-33.886;151.198;2023-06-22T12:11:46;11.90;99.90
25991;DHT22;13779;-33.886;151.198;2023-06-22T12:14:16;12.00;99.90
25991;DHT22;13779;-33.886;151.198;2023-06-22T12:16:51;12.00;99.90
25991;DHT22;13779;-33.886;151.198;2023-06-22T12:19:34;12.00;99.90
25991;DHT22;13779;-33.886;151.198;2023-06-22T12:22:04;12.00;99.90
25991;DHT22;13779;-33.886;151.198;2023-06-22T12:24:35;12.00;99.90
25991;DHT22;13779;-33.886;151.198;2023-06-22T12:27:05;12.00;99.90
25991;DHT22;13779;-33.886;151.198;2023-06-22T12:29:36;11.90;99.90
25991;DHT22;13779;-33.886;151.198;2023-06-22T12:32:07;11.90;99.90
25991;DHT22;13779;-33.886;151.198;2023-06-22T12:34:44;11.90;99.90
25991;DHT22;13779;-33.886;151.198;2023-06-22T12:37:18;11.90;99.90
25991;DHT22;13779;-33.886;151.198;2023-06-22T12:39:55;11.90;99.90
25991;DHT22;13779;-33.886;151.198;2023-06-22T12:42:26;11.90;99.90
25991;DHT22;13779;-33.886;151.198;2023-06-22T12:44:58;11.90;99.90
25991;DHT22;13779;-33.886;151.198;2023-06-22T12:47:28;11.90;99.90
25991;DHT22;13779;-33.886;151.198;2023-06-22T12:49:58;11.90;99.90
25991;DHT22;13779;-33.886;151.198;2023-06-22T12:52:30;11.90;99.90
25991;DHT22;13779;-33.886;151.198;2023-06-22T12:55:01;11.90;99.90
25991;DHT22;13779;-33.886;151.198;2023-06-22T12:57:31;11.90;99.90
25991;DHT22;13779;-33.886;151.198;2023-06-22T13:00:02;11.90;99.90
25991;DHT22;13779;-33.886;151.198;2023-06-22T13:02:34;11.90;99.90
25991;DHT22;13779;-33.886;151.198;2023-06-22T13:05:04;11.90;99.90
25991;DHT22;13779;-33.886;151.198;2023-06-22T13:07:34;12.00;99.90
25991;DHT22;13779;-33.886;151.198;2023-06-22T13:10:06;12.00;99.90
25991;DHT22;13779;-33.886;151.198;2023-06-22T13:12:36;12.00;99.90
25991;DHT22;13779;-33.886;151.198;2023-06-22T13:15:07;12.00;99.90
25991;DHT22;13779;-33.886;151.198;2023-06-22T13:17:37;12.00;99.90
25991;DHT22;13779;-33.886;151.198;2023-06-22T13:20:08;12.00;99.90
25991;DHT22;13779;-33.886;151.198;2023-06-22T13:22:39;12.00;99.90
25991;DHT22;13779;-33.886;151.198;2023-06-22T13:25:13;12.00;99.90
25991;DHT22;13779;-33.886;151.198;2023-06-22T13:27:48;12.00;99.90
25991;DHT22;13779;-33.886;151.198;2023-06-22T13:30:18;12.00;99.90
25991;DHT22;13779;-33.886;151.198;2023-06-22T13:32:49;12.00;99.90
25991;DHT22;13779;-33.886;151.198;2023-06-22T13:35:19;11.90;99.90
25991;DHT22;13779;-33.886;151.198;2023-06-22T13:37:49;11.90;99.90
25991;DHT22;13779;-33.886;151.198;2023-06-22T13:40:19;12.00;99.90
25991;DHT22;13779;-33.886;151.198;2023-06-22T13:42:50;12.00;99.90
25991;DHT22;13779;-33.886;151.198;2023-06-22T13:45:23;12.00;99.90
25991;DHT22;13779;-33.886;151.198;2023-06-22T13:47:53;12.10;99.90
25991;DHT22;13779;-33.886;151.198;2023-06-22T13:50:23;12.10;99.90
25991;DHT22;13779;-33.886;151.198;2023-06-22T13:52:54;12.10;99.90
25991;DHT22;13779;-33.886;151.198;2023-06-22T13:55:24;12.10;99.90
25991;DHT22;13779;-33.886;151.198;2023-06-22T13:57:55;12.10;99.90
25991;DHT22;13779;-33.886;151.198;2023-06-22T14:00:26;12.10;99.90
25991;DHT22;13779;-33.886;151.198;2023-06-22T14:02:57;12.20;99.90
25991;DHT22;13779;-33.886;151.198;2023-06-22T14:05:28;12.20;99.90
25991;DHT22;13779;-33.886;151.198;2023-06-22T14:07:58;12.20;99.90
25991;DHT22;13779;-33.886;151.198;2023-06-22T14:10:28;12.30;99.90
25991;DHT22;13779;-33.886;151.198;2023-06-22T14:12:58;12.20;99.90
25991;DHT22;13779;-33.886;151.198;2023-06-22T14:15:29;12.30;99.90
25991;DHT22;13779;-33.886;151.198;2023-06-22T14:18:00;12.30;99.90
25991;DHT22;13779;-33.886;151.198;2023-06-22T14:20:30;12.30;99.90
25991;DHT22;13779;-33.886;151.198;2023-06-22T14:23:00;12.30;99.90
25991;DHT22;13779;-33.886;151.198;2023-06-22T14:25:31;12.30;99.90
25991;DHT22;13779;-33.886;151.198;2023-06-22T14:28:01;12.30;99.90
25991;DHT22;13779;-33.886;151.198;2023-06-22T14:30:31;12.30;99.90
25991;DHT22;13779;-33.886;151.198;2023-06-22T14:33:01;12.40;99.90
25991;DHT22;13779;-33.886;151.198;2023-06-22T14:35:32;12.40;99.90
25991;DHT22;13779;-33.886;151.198;2023-06-22T14:38:02;12.40;99.90
25991;DHT22;13779;-33.886;151.198;2023-06-22T14:40:32;12.30;99.90
25991;DHT22;13779;-33.886;151.198;2023-06-22T14:43:10;12.30;99.90
25991;DHT22;13779;-33.886;151.198;2023-06-22T14:45:41;12.30;99.90
25991;DHT22;13779;-33.886;151.198;2023-06-22T14:48:12;12.40;99.90
25991;DHT22;13779;-33.886;151.198;2023-06-22T14:50:42;12.40;99.90
25991;DHT22;13779;-33.886;151.198;2023-06-22T14:53:13;12.40;99.90
25991;DHT22;13779;-33.886;151.198;2023-06-22T14:55:47;12.40;99.90
25991;DHT22;13779;-33.886;151.198;2023-06-22T14:58:17;12.40;99.90
25991;DHT22;13779;-33.886;151.198;2023-06-22T15:00:48;12.40;99.90
25991;DHT22;13779;-33.886;151.198;2023-06-22T15:03:19;12.40;99.90
25991;DHT22;13779;-33.886;151.198;2023-06-22T15:05:55;12.40;99.90
25991;DHT22;13779;-33.886;151.198;2023-06-22T15:08:26;12.40;99.90
25991;DHT22;13779;-33.886;151.198;2023-06-22T15:10:59;12.40;99.90
25991;DHT22;13779;-33.886;151.198;2023-06-22T15:13:33;12.40;99.90
25991;DHT22;13779;-33.886;151.198;2023-06-22T15:16:04;12.40;99.90